createdAt,value
2018-03-04T00:00:46.808Z,0.00
2018-03-04T00:01:46.747Z,0.00
2018-03-04T00:02:46.689Z,0.00
2018-03-04T00:03:46.626Z,0.00
2018-03-04T00:04:46.563Z,0.00
2018-03-04T00:05:46.504Z,0.00
2018-03-04T00:06:46.441Z,0.00
2018-03-04T00:07:46.369Z,0.00
2018-03-04T00:08:46.319Z,0.00
2018-03-04T00:09:46.260Z,0.00
2018-03-04T00:10:46.195Z,0.00
2018-03-04T00:11:46.135Z,0.00
2018-03-04T00:12:46.073Z,0.00
2018-03-04T00:13:46.014Z,0.00
2018-03-04T00:14:45.954Z,0.00
2018-03-04T00:15:45.892Z,0.00
2018-03-04T00:16:45.829Z,4.00
2018-03-04T00:17:45.769Z,4.00
2018-03-04T00:18:45.707Z,0.00
2018-03-04T00:19:45.646Z,0.00
2018-03-04T00:20:45.583Z,0.00
2018-03-04T00:21:45.525Z,0.00
2018-03-04T00:22:45.462Z,0.00
2018-03-04T00:23:45.402Z,0.00
2018-03-04T00:24:45.339Z,0.00
2018-03-04T00:25:45.279Z,0.00
2018-03-04T00:26:45.218Z,0.00
2018-03-04T00:27:45.167Z,0.00
2018-03-04T00:28:45.094Z,0.00
2018-03-04T00:29:45.034Z,0.00
2018-03-04T00:30:44.970Z,0.00
2018-03-04T00:31:44.911Z,0.00
2018-03-04T00:32:44.857Z,0.00
2018-03-04T00:33:44.787Z,0.00
2018-03-04T00:34:44.727Z,0.00
2018-03-04T00:35:44.673Z,0.00
2018-03-04T00:36:44.639Z,0.00
2018-03-04T00:37:44.542Z,0.00
2018-03-04T00:38:44.486Z,0.00
2018-03-04T00:39:44.472Z,0.00
2018-03-04T00:40:44.361Z,0.00
2018-03-04T00:41:44.298Z,0.00
2018-03-04T00:42:44.235Z,0.00
2018-03-04T00:43:44.178Z,0.00
2018-03-04T00:44:44.115Z,0.00
2018-03-04T00:45:44.058Z,0.00
2018-03-04T00:46:44.000Z,0.00
2018-03-04T00:47:43.930Z,0.00
2018-03-04T00:48:43.868Z,0.00
2018-03-04T00:49:43.808Z,0.00
2018-03-04T00:50:43.748Z,0.00
2018-03-04T00:51:43.690Z,0.00
2018-03-04T00:52:43.625Z,0.00
2018-03-04T00:53:43.563Z,0.00
2018-03-04T00:54:43.502Z,0.00
2018-03-04T00:55:43.441Z,0.00
2018-03-04T00:56:43.378Z,0.00
2018-03-04T00:57:43.319Z,0.00
2018-03-04T00:58:43.257Z,0.00
2018-03-04T00:59:43.196Z,0.00
2018-03-04T01:00:43.137Z,0.00
2018-03-04T01:01:43.078Z,0.00
2018-03-04T01:02:43.011Z,0.00
2018-03-04T01:03:42.951Z,0.00
2018-03-04T01:04:42.890Z,0.00
2018-03-04T01:05:42.833Z,0.00
2018-03-04T01:06:42.764Z,4.00
2018-03-04T01:07:42.706Z,0.00
2018-03-04T01:08:42.646Z,0.00
2018-03-04T01:09:42.582Z,0.00
2018-03-04T01:10:42.522Z,0.00
2018-03-04T01:11:42.459Z,0.00
2018-03-04T01:12:42.396Z,0.00
2018-03-04T01:13:42.338Z,0.00
2018-03-04T01:14:42.274Z,0.00
2018-03-04T01:15:42.218Z,0.00
2018-03-04T01:16:42.150Z,0.00
2018-03-04T01:17:43.033Z,0.00
2018-03-04T01:18:42.029Z,0.00
2018-03-04T01:19:41.966Z,0.00
2018-03-04T01:20:41.905Z,0.00
2018-03-04T01:21:41.846Z,0.00
2018-03-04T01:22:41.788Z,0.00
2018-03-04T01:23:41.719Z,0.00
2018-03-04T01:24:41.656Z,0.00
2018-03-04T01:25:41.596Z,0.00
2018-03-04T01:26:41.532Z,0.00
2018-03-04T01:27:41.470Z,0.00
2018-03-04T01:28:41.411Z,0.00
2018-03-04T01:29:41.348Z,0.00
2018-03-04T01:30:41.287Z,0.00
2018-03-04T01:31:41.226Z,0.00
2018-03-04T01:32:41.162Z,0.00
2018-03-04T01:33:41.107Z,0.00
2018-03-04T01:34:41.037Z,0.00
2018-03-04T01:35:40.978Z,0.00
2018-03-04T01:36:40.915Z,0.00
2018-03-04T01:37:40.853Z,0.00
2018-03-04T01:38:40.793Z,0.00
2018-03-04T01:39:40.728Z,0.00
2018-03-04T01:40:40.667Z,0.00
2018-03-04T01:41:40.606Z,0.00
2018-03-04T01:42:40.562Z,0.00
2018-03-04T01:43:40.478Z,0.00
2018-03-04T01:44:40.423Z,0.00
2018-03-04T01:45:40.358Z,0.00
2018-03-04T01:46:40.295Z,0.00
2018-03-04T01:47:40.238Z,0.00
2018-03-04T01:48:40.171Z,0.00
2018-03-04T01:49:40.109Z,0.00
2018-03-04T01:50:40.047Z,0.00
2018-03-04T01:51:39.986Z,0.00
2018-03-04T01:52:39.928Z,0.00
2018-03-04T01:53:39.862Z,0.00
2018-03-04T01:54:39.803Z,0.00
2018-03-04T01:55:39.741Z,0.00
2018-03-04T01:56:39.678Z,0.00
2018-03-04T01:57:39.614Z,0.00
2018-03-04T01:58:39.552Z,0.00
2018-03-04T01:59:39.490Z,0.00
2018-03-04T02:00:39.431Z,0.00
2018-03-04T02:01:39.368Z,0.00
2018-03-04T02:02:39.306Z,0.00
2018-03-04T02:03:39.244Z,0.00
2018-03-04T02:04:39.183Z,0.00
2018-03-04T02:05:39.119Z,0.00
2018-03-04T02:06:39.058Z,0.00
2018-03-04T02:07:39.000Z,0.00
2018-03-04T02:08:38.936Z,0.00
2018-03-04T02:09:38.873Z,0.00
2018-03-04T02:10:38.810Z,0.00
2018-03-04T02:11:38.750Z,0.00
2018-03-04T02:12:38.687Z,0.00
2018-03-04T02:13:38.628Z,0.00
2018-03-04T02:14:38.565Z,0.00
2018-03-04T02:15:38.502Z,0.00
2018-03-04T02:16:38.442Z,0.00
2018-03-04T02:17:38.381Z,0.00
2018-03-04T02:18:38.317Z,0.00
2018-03-04T02:19:38.257Z,0.00
2018-03-04T02:20:38.197Z,0.00
2018-03-04T02:21:38.133Z,0.00
2018-03-04T02:22:38.072Z,4.00
2018-03-04T02:23:38.010Z,0.00
2018-03-04T02:24:37.947Z,0.00
2018-03-04T02:25:37.887Z,0.00
2018-03-04T02:26:37.826Z,4.00
2018-03-04T02:27:37.764Z,0.00
2018-03-04T02:28:37.709Z,0.00
2018-03-04T02:29:37.641Z,0.00
2018-03-04T02:30:37.581Z,0.00
2018-03-04T02:31:37.517Z,0.00
2018-03-04T02:32:37.458Z,0.00
2018-03-04T02:33:37.396Z,0.00
2018-03-04T02:34:37.332Z,0.00
2018-03-04T02:35:37.272Z,0.00
2018-03-04T02:36:37.211Z,0.00
2018-03-04T02:37:37.151Z,0.00
2018-03-04T02:38:37.088Z,0.00
2018-03-04T02:39:37.027Z,0.00
2018-03-04T02:40:36.968Z,0.00
2018-03-04T02:41:36.902Z,0.00
2018-03-04T02:42:36.846Z,0.00
2018-03-04T02:43:36.780Z,0.00
2018-03-04T02:44:36.721Z,0.00
2018-03-04T02:45:36.657Z,0.00
2018-03-04T02:46:36.595Z,0.00
2018-03-04T02:47:36.536Z,0.00
2018-03-04T02:48:36.477Z,0.00
2018-03-04T02:49:36.409Z,0.00
2018-03-04T02:50:36.348Z,0.00
2018-03-04T02:51:36.290Z,0.00
2018-03-04T02:52:36.226Z,0.00
2018-03-04T02:53:36.168Z,0.00
2018-03-04T02:54:36.105Z,0.00
2018-03-04T02:55:36.045Z,0.00
2018-03-04T02:56:35.981Z,0.00
2018-03-04T02:57:35.919Z,0.00
2018-03-04T02:58:35.857Z,0.00
2018-03-04T02:59:35.796Z,0.00
2018-03-04T03:00:35.735Z,0.00
2018-03-04T03:01:35.673Z,0.00
2018-03-04T03:02:35.616Z,0.00
2018-03-04T03:03:35.549Z,0.00
2018-03-04T03:04:35.487Z,0.00
2018-03-04T03:05:35.426Z,0.00
2018-03-04T03:06:35.364Z,0.00
2018-03-04T03:07:35.308Z,0.00
2018-03-04T03:08:35.242Z,0.00
2018-03-04T03:09:35.181Z,0.00
2018-03-04T03:10:35.120Z,0.00
2018-03-04T03:11:35.059Z,0.00
2018-03-04T03:12:34.997Z,0.00
2018-03-04T03:13:34.934Z,0.00
2018-03-04T03:14:34.869Z,0.00
2018-03-04T03:15:34.811Z,0.00
2018-03-04T03:16:34.749Z,0.00
2018-03-04T03:17:34.690Z,0.00
2018-03-04T03:18:34.627Z,0.00
2018-03-04T03:19:34.564Z,0.00
2018-03-04T03:20:34.505Z,0.00
2018-03-04T03:21:34.443Z,4.00
2018-03-04T03:22:34.381Z,0.00
2018-03-04T03:23:34.320Z,0.00
2018-03-04T03:24:34.258Z,0.00
2018-03-04T03:25:34.212Z,0.00
2018-03-04T03:26:34.134Z,0.00
2018-03-04T03:27:34.073Z,0.00
2018-03-04T03:28:34.015Z,0.00
2018-03-04T03:29:33.950Z,0.00
2018-03-04T03:30:33.889Z,4.00
2018-03-04T03:31:33.828Z,0.00
2018-03-04T03:32:33.767Z,4.00
2018-03-04T03:33:33.778Z,0.00
2018-03-04T03:34:33.643Z,4.00
2018-03-04T03:35:33.577Z,0.00
2018-03-04T03:36:33.528Z,4.00
2018-03-04T03:37:33.458Z,4.00
2018-03-04T03:38:33.396Z,4.00
2018-03-04T03:39:33.335Z,0.00
2018-03-04T03:40:33.274Z,0.00
2018-03-04T03:41:33.209Z,0.00
2018-03-04T03:42:33.148Z,4.00
2018-03-04T03:43:33.087Z,0.00
2018-03-04T03:44:33.035Z,0.00
2018-03-04T03:45:32.965Z,4.00
2018-03-04T03:46:32.900Z,0.00
2018-03-04T03:47:32.840Z,0.00
2018-03-04T03:48:32.780Z,0.00
2018-03-04T03:49:32.718Z,4.00
2018-03-04T03:50:32.652Z,4.00
2018-03-04T03:51:32.592Z,4.00
2018-03-04T03:52:32.532Z,4.00
2018-03-04T03:53:32.469Z,4.00
2018-03-04T03:54:32.407Z,0.00
2018-03-04T03:55:32.343Z,4.00
2018-03-04T03:56:32.285Z,4.00
2018-03-04T03:57:32.219Z,0.00
2018-03-04T03:58:32.158Z,4.00
2018-03-04T03:59:32.096Z,0.00
2018-03-04T04:00:32.034Z,4.00
2018-03-04T04:01:31.973Z,4.00
2018-03-04T04:02:31.912Z,0.00
2018-03-04T04:03:31.846Z,4.00
2018-03-04T04:04:31.783Z,4.00
2018-03-04T04:05:31.724Z,0.00
2018-03-04T04:06:31.662Z,0.00
2018-03-04T04:07:31.601Z,0.00
2018-03-04T04:08:31.536Z,4.00
2018-03-04T04:09:31.476Z,4.00
2018-03-04T04:10:31.416Z,4.00
2018-03-04T04:11:31.357Z,0.00
2018-03-04T04:12:31.290Z,0.00
2018-03-04T04:13:31.230Z,0.00
2018-03-04T04:14:31.164Z,4.00
2018-03-04T04:15:31.103Z,4.00
2018-03-04T04:16:31.041Z,0.00
2018-03-04T04:17:30.982Z,4.00
2018-03-04T04:18:30.918Z,4.00
2018-03-04T04:19:30.855Z,0.00
2018-03-04T04:20:30.793Z,4.00
2018-03-04T04:21:30.732Z,4.00
2018-03-04T04:22:30.671Z,4.00
2018-03-04T04:23:30.605Z,0.00
2018-03-04T04:24:30.547Z,4.00
2018-03-04T04:25:30.487Z,4.00
2018-03-04T04:26:30.426Z,0.00
2018-03-04T04:27:30.360Z,4.00
2018-03-04T04:28:30.301Z,4.00
2018-03-04T04:29:30.243Z,0.00
2018-03-04T04:30:30.175Z,4.00
2018-03-04T04:31:30.116Z,4.00
2018-03-04T04:32:30.048Z,0.00
2018-03-04T04:33:29.987Z,4.00
2018-03-04T04:34:29.928Z,4.00
2018-03-04T04:35:29.862Z,0.00
2018-03-04T04:36:29.802Z,4.00
2018-03-04T04:37:29.740Z,4.00
2018-03-04T04:38:29.678Z,4.00
2018-03-04T04:39:29.614Z,0.00
2018-03-04T04:40:29.552Z,0.00
2018-03-04T04:41:29.492Z,4.00
2018-03-04T04:42:29.430Z,4.00
2018-03-04T04:43:29.367Z,0.00
2018-03-04T04:44:29.304Z,4.00
2018-03-04T04:45:29.245Z,4.00
2018-03-04T04:46:29.181Z,4.00
2018-03-04T04:47:29.122Z,4.00
2018-03-04T04:48:29.058Z,4.00
2018-03-04T04:49:28.996Z,4.00
2018-03-04T04:50:28.935Z,4.00
2018-03-04T04:51:28.874Z,4.00
2018-03-04T04:52:28.815Z,4.00
2018-03-04T04:53:28.752Z,4.00
2018-03-04T04:54:28.687Z,4.00
2018-03-04T04:55:28.624Z,4.00
2018-03-04T04:56:28.562Z,0.00
2018-03-04T04:57:28.501Z,0.00
2018-03-04T04:58:28.438Z,0.00
2018-03-04T04:59:28.375Z,0.00
2018-03-04T05:00:28.316Z,4.00
2018-03-04T05:01:28.255Z,0.00
2018-03-04T05:02:28.191Z,0.00
2018-03-04T05:03:28.173Z,0.00
2018-03-04T05:04:28.070Z,0.00
2018-03-04T05:05:28.007Z,0.00
2018-03-04T05:06:27.943Z,0.00
2018-03-04T05:07:27.897Z,4.00
2018-03-04T05:08:27.820Z,0.00
2018-03-04T05:09:27.758Z,0.00
2018-03-04T05:10:27.695Z,4.00
2018-03-04T05:11:27.637Z,4.00
2018-03-04T05:12:27.574Z,4.00
2018-03-04T05:13:27.512Z,4.00
2018-03-04T05:14:27.451Z,4.00
2018-03-04T05:15:27.389Z,4.00
2018-03-04T05:16:27.325Z,4.00
2018-03-04T05:17:27.266Z,0.00
2018-03-04T05:18:27.198Z,4.00
2018-03-04T05:19:27.138Z,0.00
2018-03-04T05:20:27.074Z,4.00
2018-03-04T05:21:27.014Z,0.00
2018-03-04T05:22:26.950Z,0.00
2018-03-04T05:23:26.890Z,0.00
2018-03-04T05:24:26.826Z,0.00
2018-03-04T05:25:26.766Z,0.00
2018-03-04T05:26:26.701Z,0.00
2018-03-04T05:27:26.641Z,0.00
2018-03-04T05:28:26.580Z,0.00
2018-03-04T05:29:26.516Z,0.00
2018-03-04T05:30:26.466Z,0.00
2018-03-04T05:31:26.394Z,4.00
2018-03-04T05:32:26.331Z,4.00
2018-03-04T05:33:26.268Z,4.00
2018-03-04T05:34:26.205Z,4.00
2018-03-04T05:35:26.148Z,4.00
2018-03-04T05:36:26.080Z,4.00
2018-03-04T05:37:26.018Z,4.00
2018-03-04T05:38:25.955Z,8.00
2018-03-04T05:39:25.892Z,4.00
2018-03-04T05:40:25.830Z,8.00
2018-03-04T05:41:25.767Z,8.00
2018-03-04T05:42:25.704Z,8.00
2018-03-04T05:43:25.645Z,12.00
2018-03-04T05:44:25.581Z,16.00
2018-03-04T05:45:25.524Z,16.00
2018-03-04T05:46:25.455Z,20.00
2018-03-04T05:47:25.394Z,20.00
2018-03-04T05:48:25.335Z,24.00
2018-03-04T05:49:25.268Z,28.00
2018-03-04T05:50:25.207Z,32.00
2018-03-04T05:51:25.143Z,40.00
2018-03-04T05:52:25.082Z,44.00
2018-03-04T05:53:25.020Z,48.00
2018-03-04T05:54:24.959Z,56.00
2018-03-04T05:55:24.894Z,64.00
2018-03-04T05:56:24.837Z,76.00
2018-03-04T05:57:24.769Z,88.00
2018-03-04T05:58:24.706Z,96.00
2018-03-04T05:59:24.644Z,108.00
2018-03-04T06:00:24.580Z,128.00
2018-03-04T06:01:24.518Z,140.00
2018-03-04T06:02:24.456Z,152.00
2018-03-04T06:03:24.395Z,168.00
2018-03-04T06:04:24.331Z,188.00
2018-03-04T06:05:24.268Z,200.00
2018-03-04T06:06:24.205Z,220.00
2018-03-04T06:07:24.142Z,236.00
2018-03-04T06:08:24.080Z,256.00
2018-03-04T06:09:24.022Z,272.00
2018-03-04T06:10:23.956Z,284.00
2018-03-04T06:11:23.892Z,288.00
2018-03-04T06:12:23.831Z,304.00
2018-03-04T06:13:23.769Z,328.00
2018-03-04T06:14:23.706Z,340.00
2018-03-04T06:15:23.642Z,352.00
2018-03-04T06:16:23.580Z,380.00
2018-03-04T06:17:23.520Z,404.00
2018-03-04T06:18:23.454Z,428.00
2018-03-04T06:19:23.413Z,448.00
2018-03-04T06:20:23.334Z,472.00
2018-03-04T06:21:23.267Z,480.00
2018-03-04T06:22:23.206Z,504.00
2018-03-04T06:23:23.143Z,516.00
2018-03-04T06:24:23.080Z,548.00
2018-03-04T06:25:23.017Z,560.00
2018-03-04T06:26:22.954Z,592.00
2018-03-04T06:27:22.892Z,640.00
2018-03-04T06:28:22.830Z,688.00
2018-03-04T06:29:22.768Z,732.00
2018-03-04T06:30:22.704Z,768.00
2018-03-04T06:31:22.646Z,816.00
2018-03-04T06:32:22.579Z,840.00
2018-03-04T06:33:22.531Z,864.00
2018-03-04T06:34:22.453Z,884.00
2018-03-04T06:35:22.391Z,884.00
2018-03-04T06:36:22.333Z,920.00
2018-03-04T06:37:22.266Z,940.00
2018-03-04T06:38:22.203Z,1000.00
2018-03-04T06:39:22.140Z,1080.00
2018-03-04T06:40:22.078Z,1188.00
2018-03-04T06:41:22.017Z,1268.00
2018-03-04T06:42:21.953Z,1292.00
2018-03-04T06:43:21.890Z,1316.00
2018-03-04T06:44:21.829Z,1356.00
2018-03-04T06:45:21.767Z,1392.00
2018-03-04T06:46:21.704Z,1392.00
2018-03-04T06:47:21.642Z,1420.00
2018-03-04T06:48:21.577Z,1352.00
2018-03-04T06:49:21.518Z,1264.00
2018-03-04T06:50:21.459Z,1296.00
2018-03-04T06:51:21.391Z,1140.00
2018-03-04T06:52:21.328Z,1216.00
2018-03-04T06:53:21.266Z,1448.00
2018-03-04T06:54:21.204Z,1680.00
2018-03-04T06:55:21.144Z,1860.00
2018-03-04T06:56:21.082Z,2008.00
2018-03-04T06:57:21.017Z,1676.00
2018-03-04T06:58:20.955Z,1972.00
2018-03-04T06:59:20.894Z,2424.00
2018-03-04T07:00:20.831Z,2392.00
2018-03-04T07:01:20.770Z,2304.00
2018-03-04T07:02:20.705Z,2400.00
2018-03-04T07:03:20.645Z,2008.00
2018-03-04T07:04:20.586Z,1896.00
2018-03-04T07:05:20.520Z,1872.00
2018-03-04T07:06:20.459Z,1900.00
2018-03-04T07:07:20.395Z,1656.00
2018-03-04T07:08:20.336Z,1496.00
2018-03-04T07:09:20.272Z,1372.00
2018-03-04T07:10:20.209Z,1400.00
2018-03-04T07:11:20.148Z,1468.00
2018-03-04T07:12:20.090Z,1456.00
2018-03-04T07:13:20.024Z,1396.00
2018-03-04T07:14:19.961Z,1360.00
2018-03-04T07:15:19.902Z,1320.00
2018-03-04T07:16:19.834Z,1248.00
2018-03-04T07:17:19.778Z,1256.00
2018-03-04T07:18:19.713Z,1588.00
2018-03-04T07:19:19.650Z,1756.00
2018-03-04T07:20:19.589Z,1920.00
2018-03-04T07:21:19.534Z,2244.00
2018-03-04T07:22:19.462Z,2360.00
2018-03-04T07:23:19.400Z,2572.00
2018-03-04T07:24:19.345Z,2648.00
2018-03-04T07:25:19.277Z,2772.00
2018-03-04T07:26:19.217Z,2668.00
2018-03-04T07:27:19.153Z,2840.00
2018-03-04T07:28:19.089Z,2488.00
2018-03-04T07:29:19.031Z,2364.00
2018-03-04T07:30:18.967Z,2392.00
2018-03-04T07:31:18.902Z,2236.00
2018-03-04T07:32:18.840Z,2744.00
2018-03-04T07:33:18.786Z,2924.00
2018-03-04T07:34:18.717Z,3028.00
2018-03-04T07:35:18.654Z,3104.00
2018-03-04T07:36:18.595Z,2924.00
2018-03-04T07:37:18.531Z,3144.00
2018-03-04T07:38:18.466Z,3352.00
2018-03-04T07:39:18.410Z,3648.00
2018-03-04T07:40:18.343Z,3488.00
2018-03-04T07:41:18.282Z,3596.00
2018-03-04T07:42:18.218Z,3532.00
2018-03-04T07:43:18.165Z,3532.00
2018-03-04T07:44:18.093Z,3564.00
2018-03-04T07:45:18.030Z,3816.00
2018-03-04T07:46:17.970Z,4252.00
2018-03-04T07:47:17.953Z,3956.00
2018-03-04T07:48:17.847Z,4060.00
2018-03-04T07:49:17.782Z,4220.00
2018-03-04T07:50:17.721Z,4164.00
2018-03-04T07:51:17.659Z,3836.00
2018-03-04T07:52:17.598Z,3944.00
2018-03-04T07:53:17.534Z,4164.00
2018-03-04T07:54:17.473Z,4196.00
2018-03-04T07:55:17.410Z,3744.00
2018-03-04T07:56:17.349Z,3588.00
2018-03-04T07:57:17.288Z,4004.00
2018-03-04T07:58:17.226Z,4412.00
2018-03-04T07:59:17.161Z,4600.00
2018-03-04T08:00:17.104Z,4764.00
2018-03-04T08:01:17.040Z,4696.00
2018-03-04T08:02:16.977Z,4664.00
2018-03-04T08:03:16.914Z,4688.00
2018-03-04T08:04:16.857Z,5120.00
2018-03-04T08:05:16.791Z,5584.00
2018-03-04T08:06:16.729Z,5644.00
2018-03-04T08:07:16.674Z,5816.00
2018-03-04T08:08:16.604Z,6372.00
2018-03-04T08:09:16.540Z,6760.00
2018-03-04T08:10:16.483Z,6660.00
2018-03-04T08:11:16.420Z,7212.00
2018-03-04T08:12:16.360Z,7484.00
2018-03-04T08:13:16.301Z,7432.00
2018-03-04T08:14:16.236Z,7524.00
2018-03-04T08:15:16.173Z,7056.00
2018-03-04T08:16:16.112Z,7024.00
2018-03-04T08:17:16.055Z,5928.00
2018-03-04T08:18:15.991Z,4852.00
2018-03-04T08:19:15.931Z,4688.00
2018-03-04T08:20:15.868Z,5104.00
2018-03-04T08:21:15.810Z,5024.00
2018-03-04T08:22:15.747Z,5236.00
2018-03-04T08:23:15.685Z,5488.00
2018-03-04T08:24:15.625Z,6136.00
2018-03-04T08:25:15.566Z,6220.00
2018-03-04T08:26:15.503Z,5844.00
2018-03-04T08:27:15.440Z,5276.00
2018-03-04T08:28:15.382Z,4972.00
2018-03-04T08:29:15.318Z,5348.00
2018-03-04T08:30:15.257Z,4976.00
2018-03-04T08:31:15.198Z,4620.00
2018-03-04T08:32:15.137Z,4528.00
2018-03-04T08:33:15.076Z,5336.00
2018-03-04T08:34:15.015Z,5004.00
2018-03-04T08:35:14.952Z,5552.00
2018-03-04T08:36:14.907Z,6288.00
2018-03-04T08:37:14.831Z,6132.00
2018-03-04T08:38:14.769Z,6028.00
2018-03-04T08:39:14.706Z,6492.00
2018-03-04T08:40:14.649Z,6884.00
2018-03-04T08:41:14.588Z,6128.00
2018-03-04T08:42:14.524Z,6092.00
2018-03-04T08:43:14.463Z,6784.00
2018-03-04T08:44:14.404Z,7256.00
2018-03-04T08:45:14.343Z,7176.00
2018-03-04T08:46:14.282Z,6992.00
2018-03-04T08:47:14.220Z,7248.00
2018-03-04T08:48:14.157Z,7648.00
2018-03-04T08:49:14.097Z,7464.00
2018-03-04T08:50:14.037Z,7088.00
2018-03-04T08:51:13.976Z,6832.00
2018-03-04T08:52:13.915Z,6888.00
2018-03-04T08:53:13.854Z,6716.00
2018-03-04T08:54:13.794Z,7004.00
2018-03-04T08:55:13.732Z,7228.00
2018-03-04T08:56:13.674Z,7208.00
2018-03-04T08:57:13.611Z,7116.00
2018-03-04T08:58:13.550Z,7380.00
2018-03-04T08:59:13.499Z,7376.00
2018-03-04T09:00:13.437Z,7620.00
2018-03-04T09:01:13.372Z,7448.00
2018-03-04T09:02:13.347Z,7528.00
2018-03-04T09:03:13.245Z,7496.00
2018-03-04T09:04:13.183Z,7028.00
2018-03-04T09:05:13.126Z,7336.00
2018-03-04T09:06:13.077Z,7324.00
2018-03-04T09:07:13.009Z,7844.00
2018-03-04T09:08:12.942Z,7680.00
2018-03-04T09:09:12.882Z,7832.00
2018-03-04T09:10:12.823Z,7912.00
2018-03-04T09:11:12.762Z,7852.00
2018-03-04T09:12:12.698Z,7988.00
2018-03-04T09:13:12.637Z,7716.00
2018-03-04T09:14:12.578Z,8004.00
2018-03-04T09:15:12.518Z,8116.00
2018-03-04T09:16:12.458Z,8632.00
2018-03-04T09:17:12.400Z,9100.00
2018-03-04T09:18:12.336Z,9192.00
2018-03-04T09:19:12.275Z,9064.00
2018-03-04T09:20:12.214Z,8816.00
2018-03-04T09:21:12.155Z,8788.00
2018-03-04T09:22:12.093Z,8200.00
2018-03-04T09:23:12.034Z,8280.00
2018-03-04T09:24:11.976Z,8216.00
2018-03-04T09:25:11.914Z,8176.00
2018-03-04T09:26:11.852Z,8460.00
2018-03-04T09:27:11.793Z,8256.00
2018-03-04T09:28:11.733Z,8500.00
2018-03-04T09:29:11.671Z,8452.00
2018-03-04T09:30:11.611Z,8404.00
2018-03-04T09:31:11.551Z,8452.00
2018-03-04T09:32:11.490Z,8928.00
2018-03-04T09:33:11.450Z,8936.00
2018-03-04T09:34:11.379Z,9004.00
2018-03-04T09:35:11.311Z,8912.00
2018-03-04T09:36:11.252Z,8952.00
2018-03-04T09:37:11.191Z,9060.00
2018-03-04T09:38:11.131Z,9652.00
2018-03-04T09:39:11.072Z,9640.00
2018-03-04T09:40:11.010Z,9612.00
2018-03-04T09:41:10.950Z,10004.00
2018-03-04T09:42:10.891Z,10064.00
2018-03-04T09:43:10.832Z,10328.00
2018-03-04T09:44:10.769Z,10468.00
2018-03-04T09:45:10.710Z,10056.00
2018-03-04T09:46:10.653Z,10300.00
2018-03-04T09:47:10.591Z,10644.00
2018-03-04T09:48:10.531Z,10464.00
2018-03-04T09:49:10.472Z,10472.00
2018-03-04T09:50:10.411Z,10268.00
2018-03-04T09:51:10.355Z,10404.00
2018-03-04T09:52:10.292Z,11416.00
2018-03-04T09:53:10.231Z,11356.00
2018-03-04T09:54:10.171Z,11088.00
2018-03-04T09:55:10.114Z,10816.00
2018-03-04T09:56:10.055Z,10340.00
2018-03-04T09:57:09.995Z,10880.00
2018-03-04T09:58:09.935Z,10964.00
2018-03-04T09:59:09.876Z,10740.00
2018-03-04T10:00:09.816Z,10040.00
2018-03-04T10:01:09.758Z,10116.00
2018-03-04T10:02:09.714Z,10572.00
2018-03-04T10:03:09.640Z,11632.00
2018-03-04T10:04:09.580Z,11004.00
2018-03-04T10:05:09.520Z,9780.00
2018-03-04T10:06:09.460Z,9480.00
2018-03-04T10:07:09.406Z,8848.00
2018-03-04T10:08:09.342Z,8784.00
2018-03-04T10:09:09.287Z,9020.00
2018-03-04T10:10:09.225Z,7644.00
2018-03-04T10:11:09.164Z,6600.00
2018-03-04T10:12:09.106Z,7020.00
2018-03-04T10:13:09.048Z,7112.00
2018-03-04T10:14:08.992Z,7936.00
2018-03-04T10:15:08.932Z,8560.00
2018-03-04T10:16:08.869Z,9016.00
2018-03-04T10:17:08.810Z,10464.00
2018-03-04T10:18:08.750Z,11228.00
2018-03-04T10:19:08.690Z,12300.00
2018-03-04T10:20:08.632Z,11536.00
2018-03-04T10:21:08.572Z,11920.00
2018-03-04T10:22:08.513Z,11904.00
2018-03-04T10:23:08.453Z,11392.00
2018-03-04T10:24:08.398Z,10644.00
2018-03-04T10:25:08.338Z,10744.00
2018-03-04T10:26:08.326Z,10180.00
2018-03-04T10:27:08.221Z,9936.00
2018-03-04T10:28:08.160Z,10352.00
2018-03-04T10:29:08.102Z,9564.00
2018-03-04T10:30:08.039Z,8476.00
2018-03-04T10:31:07.983Z,7784.00
2018-03-04T10:32:07.923Z,7404.00
2018-03-04T10:33:07.863Z,9072.00
2018-03-04T10:34:07.802Z,11692.00
2018-03-04T10:35:07.746Z,12464.00
2018-03-04T10:36:07.686Z,10756.00
2018-03-04T10:37:07.627Z,9572.00
2018-03-04T10:38:07.572Z,7972.00
2018-03-04T10:39:07.509Z,7784.00
2018-03-04T10:40:07.449Z,8476.00
2018-03-04T10:41:07.391Z,8404.00
2018-03-04T10:42:07.330Z,8880.00
2018-03-04T10:43:07.274Z,9724.00
2018-03-04T10:44:07.215Z,10124.00
2018-03-04T10:45:07.153Z,9820.00
2018-03-04T10:46:07.101Z,10332.00
2018-03-04T10:47:07.035Z,11088.00
2018-03-04T10:48:06.977Z,9740.00
2018-03-04T10:49:06.917Z,9824.00
2018-03-04T10:50:06.860Z,9508.00
2018-03-04T10:51:06.799Z,7664.00
2018-03-04T10:52:06.742Z,7064.00
2018-03-04T10:53:06.681Z,8768.00
2018-03-04T10:54:06.622Z,7664.00
2018-03-04T10:55:06.562Z,8516.00
2018-03-04T10:56:06.503Z,8736.00
2018-03-04T10:57:06.446Z,9588.00
2018-03-04T10:58:06.388Z,10864.00
2018-03-04T10:59:06.326Z,10660.00
2018-03-04T11:00:06.268Z,9852.00
2018-03-04T11:01:06.215Z,9328.00
2018-03-04T11:02:06.148Z,8880.00
2018-03-04T11:03:06.090Z,8932.00
2018-03-04T11:04:06.032Z,9740.00
2018-03-04T11:05:05.978Z,9896.00
2018-03-04T11:06:05.912Z,10300.00
2018-03-04T11:07:05.847Z,10864.00
2018-03-04T11:08:05.796Z,11156.00
2018-03-04T11:09:05.745Z,12208.00
2018-03-04T11:10:05.677Z,10028.00
2018-03-04T11:11:05.618Z,10936.00
2018-03-04T11:12:05.564Z,12004.00
2018-03-04T11:13:05.502Z,13192.00
2018-03-04T11:14:05.443Z,12444.00
2018-03-04T11:15:05.384Z,12000.00
2018-03-04T11:16:05.327Z,11424.00
2018-03-04T11:17:05.267Z,12100.00
2018-03-04T11:18:05.208Z,12104.00
2018-03-04T11:19:05.150Z,11356.00
2018-03-04T11:20:05.092Z,10124.00
2018-03-04T11:21:05.033Z,10192.00
2018-03-04T11:22:04.974Z,10600.00
2018-03-04T11:23:04.915Z,9780.00
2018-03-04T11:24:04.858Z,8996.00
2018-03-04T11:25:04.809Z,8104.00
2018-03-04T11:26:04.739Z,7476.00
2018-03-04T11:27:04.686Z,6968.00
2018-03-04T11:28:04.627Z,7036.00
2018-03-04T11:29:04.566Z,7652.00
2018-03-04T11:30:04.508Z,9428.00
2018-03-04T11:31:04.446Z,7884.00
2018-03-04T11:32:04.390Z,7164.00
2018-03-04T11:33:04.331Z,6764.00
2018-03-04T11:34:04.272Z,6240.00
2018-03-04T11:35:04.220Z,5352.00
2018-03-04T11:36:04.155Z,4544.00
2018-03-04T11:37:04.095Z,3564.00
2018-03-04T11:38:04.036Z,4516.00
2018-03-04T11:39:04.012Z,5116.00
2018-03-04T11:40:03.925Z,5708.00
2018-03-04T11:41:03.863Z,6220.00
2018-03-04T11:42:03.801Z,5272.00
2018-03-04T11:43:03.744Z,5352.00
2018-03-04T11:44:03.686Z,5648.00
2018-03-04T11:45:03.653Z,5188.00
2018-03-04T11:46:03.569Z,4788.00
2018-03-04T11:47:03.508Z,5016.00
2018-03-04T11:48:03.448Z,4356.00
2018-03-04T11:49:03.391Z,4344.00
2018-03-04T11:50:03.330Z,4504.00
2018-03-04T11:51:03.273Z,4440.00
2018-03-04T11:52:03.216Z,4408.00
2018-03-04T11:53:03.156Z,4204.00
2018-03-04T11:54:03.094Z,4272.00
2018-03-04T11:55:03.036Z,4308.00
2018-03-04T11:56:02.976Z,4268.00
2018-03-04T11:57:02.919Z,4292.00
2018-03-04T11:58:02.861Z,4220.00
2018-03-04T11:59:02.800Z,4220.00
2018-03-04T12:00:02.746Z,4136.00
2018-03-04T12:01:02.687Z,3952.00
2018-03-04T12:02:02.621Z,3792.00
2018-03-04T12:03:02.565Z,3704.00
2018-03-04T12:04:02.507Z,3540.00
2018-03-04T12:05:02.453Z,3420.00
2018-03-04T12:06:02.387Z,3384.00
2018-03-04T12:07:02.329Z,3272.00
2018-03-04T12:08:02.270Z,3240.00
2018-03-04T12:09:02.211Z,3204.00
2018-03-04T12:10:02.148Z,3152.00
2018-03-04T12:11:02.087Z,3112.00
2018-03-04T12:12:02.030Z,3096.00
2018-03-04T12:13:01.970Z,3124.00
2018-03-04T12:14:01.910Z,3076.00
2018-03-04T12:15:01.853Z,3096.00
2018-03-04T12:16:01.792Z,3100.00
2018-03-04T12:17:01.731Z,3112.00
2018-03-04T12:18:01.673Z,3108.00
2018-03-04T12:19:01.613Z,3152.00
2018-03-04T12:20:01.544Z,3132.00
2018-03-04T12:21:01.493Z,3128.00
2018-03-04T12:22:01.435Z,3108.00
2018-03-04T12:23:01.374Z,3128.00
2018-03-04T12:24:01.328Z,3172.00
2018-03-04T12:25:01.256Z,3216.00
2018-03-04T12:26:01.196Z,3260.00
2018-03-04T12:27:01.136Z,3248.00
2018-03-04T12:28:01.077Z,3216.00
2018-03-04T12:29:01.018Z,3208.00
2018-03-04T12:30:00.957Z,3232.00
2018-03-04T12:31:00.903Z,3268.00
2018-03-04T12:32:00.838Z,3232.00
2018-03-04T12:33:00.780Z,3200.00
2018-03-04T12:34:00.720Z,3192.00
2018-03-04T12:35:00.659Z,3152.00
2018-03-04T12:36:00.605Z,3112.00
2018-03-04T12:37:00.541Z,3096.00